Karla A — TCCR8 — position and weather

sailwx.info

Track history (hours):
 
Tides and Currents Weather Stations Pressure Air Temp Water Temp Dewpoint Dewpoint Depression Visibility Wind Speed Wind Dir Waves Ship Positions

Karla A

Last reported at 2014-Oct-17 18:04 UTC. Time now 2014-Oct-21 21:42 UTC.
Position N 31°49' E 032°40'.

Length 155 m; draft 7.6 m.

Type: Ship (hazmat cat A). MMSI: 271000744.

Date/timePositionNaut miles runAvg speedWind from/ knotsBaromVisibWave heightAir tempDewpointWater temp
2014-Oct-17 18:04N 31°49' E 032°40'  
2014-Oct-10 17:18N 31°22' E 032°18'0 0.0
2014-Oct-09 16:22N 31°22' E 032°18'16 1.1
2014-Oct-09 01:03N 31°37' E 032°24'612.8
2014-Oct-09 00:33N 31°40' E 032°31'1312.7
2014-Oct-08 23:33N 31°49' E 032°41'1313.2
2014-Oct-08 22:33N 31°59' E 032°52'1812.8
2014-Oct-08 21:11N 32°12' E 033°06'812.7
2014-Oct-08 20:33N 32°17' E 033°13'1312.6
2014-Oct-08 19:33N 32°26' E 033°24'1312.4
2014-Oct-08 18:32N 32°35' E 033°35'1212.2
2014-Oct-08 17:33N 32°43' E 033°45'1312.5
2014-Oct-08 16:31N 32°51' E 033°57'1212.9
2014-Oct-08 15:33N 33°00' E 034°07'1313.0
2014-Oct-08 14:33N 33°09' E 034°18'1313.0
2014-Oct-08 13:33N 33°18' E 034°29'1313.1
2014-Oct-08 12:33N 33°28' E 034°40'1413.5
2014-Oct-08 11:33N 33°37' E 034°52'38 2.7
2014-Oct-07 21:32N 33°55' E 035°32'  
Track history (hours):
 
Tides and Currents Weather Stations Pressure Air Temp Water Temp Dewpoint Dewpoint Depression Visibility Wind Speed Wind Dir Waves Ship Positions

Karla A

Last reported at 2014-Oct-17 18:04 UTC. Time now 2014-Oct-21 21:42 UTC.
Position N 31°49' E 032°40'.

Length 155 m; draft 7.6 m.

Type: Ship (hazmat cat A). MMSI: 271000744.

Date/timePositionNaut miles runAvg speedWind from/ knotsBaromVisibWave heightAir tempDewpointWater temp
2014-Oct-17 18:04N 31°49' E 032°40'  
2014-Oct-10 17:18N 31°22' E 032°18'0 0.0
2014-Oct-09 16:22N 31°22' E 032°18'16 1.1
2014-Oct-09 01:03N 31°37' E 032°24'612.8
2014-Oct-09 00:33N 31°40' E 032°31'1312.7
2014-Oct-08 23:33N 31°49' E 032°41'1313.2
2014-Oct-08 22:33N 31°59' E 032°52'1812.8
2014-Oct-08 21:11N 32°12' E 033°06'812.7
2014-Oct-08 20:33N 32°17' E 033°13'1312.6
2014-Oct-08 19:33N 32°26' E 033°24'1312.4
2014-Oct-08 18:32N 32°35' E 033°35'1212.2
2014-Oct-08 17:33N 32°43' E 033°45'1312.5
2014-Oct-08 16:31N 32°51' E 033°57'1212.9
2014-Oct-08 15:33N 33°00' E 034°07'1313.0
2014-Oct-08 14:33N 33°09' E 034°18'1313.0
2014-Oct-08 13:33N 33°18' E 034°29'1313.1
2014-Oct-08 12:33N 33°28' E 034°40'1413.5
2014-Oct-08 11:33N 33°37' E 034°52'38 2.7
2014-Oct-07 21:32N 33°55' E 035°32'  

Dump ship's entire track history